createdAt,value
2019-02-23T00:00:31.255Z,2.90
2019-02-23T00:02:59.795Z,2.90
2019-02-23T00:05:28.620Z,2.80
2019-02-23T00:07:57.239Z,2.80
2019-02-23T00:10:25.807Z,2.80
2019-02-23T00:12:54.438Z,2.70
2019-02-23T00:15:22.967Z,2.60
2019-02-23T00:18:12.681Z,2.60
2019-02-23T00:20:41.415Z,2.50
2019-02-23T00:23:09.987Z,2.40
2019-02-23T00:25:38.887Z,2.30
2019-02-23T00:28:07.430Z,2.10
2019-02-23T00:30:36.155Z,2.10
2019-02-23T00:33:04.663Z,2.10
2019-02-23T00:35:33.210Z,2.00
2019-02-23T00:38:01.756Z,1.90
2019-02-23T00:40:30.335Z,1.90
2019-02-23T00:42:58.969Z,1.80
2019-02-23T00:45:27.511Z,1.80
2019-02-23T00:47:56.090Z,1.70
2019-02-23T00:50:24.659Z,1.70
2019-02-23T00:52:53.250Z,1.70
2019-02-23T00:55:21.800Z,1.60
2019-02-23T00:57:50.367Z,1.60
2019-02-23T01:00:19.254Z,1.50
2019-02-23T01:02:47.865Z,1.40
2019-02-23T01:05:16.403Z,1.30
2019-02-23T01:07:45.110Z,1.30
2019-02-23T01:10:13.984Z,1.20
2019-02-23T01:12:42.528Z,1.10
2019-02-23T01:15:11.632Z,1.00
2019-02-23T01:17:40.178Z,1.00
2019-02-23T01:20:29.615Z,0.90
2019-02-23T01:22:58.164Z,0.80
2019-02-23T01:25:26.767Z,0.80
2019-02-23T01:27:55.335Z,0.70
2019-02-23T01:30:23.883Z,0.70
2019-02-23T01:32:52.482Z,0.70
2019-02-23T01:35:21.059Z,0.70
2019-02-23T01:37:49.608Z,0.70
2019-02-23T01:40:18.210Z,0.70
2019-02-23T01:42:46.794Z,0.70
2019-02-23T01:45:15.412Z,0.70
2019-02-23T01:47:44.024Z,0.70
2019-02-23T01:50:12.739Z,0.70
2019-02-23T01:52:41.388Z,0.60
2019-02-23T01:55:10.081Z,0.60
2019-02-23T01:57:38.654Z,0.50
2019-02-23T02:00:11.824Z,0.50
2019-02-23T02:02:40.824Z,0.40
2019-02-23T02:05:30.251Z,0.40
2019-02-23T02:07:58.900Z,0.30
2019-02-23T02:10:27.523Z,0.30
2019-02-23T02:12:56.125Z,0.20
2019-02-23T02:15:24.783Z,0.10
2019-02-23T02:17:53.342Z,0.10
2019-02-23T02:20:21.882Z,0.00
2019-02-23T02:22:50.535Z,-0.10
2019-02-23T02:25:19.254Z,-0.20
2019-02-23T02:27:47.831Z,-0.20
2019-02-23T02:30:16.450Z,-0.30
2019-02-23T02:32:44.999Z,-0.30
2019-02-23T02:35:13.574Z,-0.40
2019-02-23T02:37:42.507Z,-0.30
2019-02-23T02:40:11.192Z,-0.40
2019-02-23T02:42:39.834Z,-0.40
2019-02-23T02:45:10.544Z,-0.40
2019-02-23T02:47:39.168Z,-0.40
2019-02-23T02:50:28.577Z,-0.40
2019-02-23T02:52:57.168Z,-0.50
2019-02-23T02:55:25.719Z,-0.50
2019-02-23T02:57:54.279Z,-0.50
2019-02-23T03:00:22.861Z,-0.50
2019-02-23T03:02:51.412Z,-0.50
2019-02-23T03:05:19.962Z,-0.60
2019-02-23T03:07:48.840Z,-0.60
2019-02-23T03:10:17.452Z,-0.60
2019-02-23T03:12:46.012Z,-0.60
2019-02-23T03:15:14.896Z,-0.60
2019-02-23T03:17:43.460Z,-0.70
2019-02-23T03:20:12.080Z,-0.70
2019-02-23T03:22:40.663Z,-0.70
2019-02-23T03:25:09.345Z,-0.80
2019-02-23T03:27:37.902Z,-0.80
2019-02-23T03:30:09.513Z,-0.80
2019-02-23T03:32:38.067Z,-0.80
2019-02-23T03:35:06.764Z,-0.90
2019-02-23T03:37:35.407Z,-0.90
2019-02-23T03:40:04.944Z,-0.90
2019-02-23T03:42:33.451Z,-0.90
2019-02-23T03:45:02.045Z,-0.90
2019-02-23T03:47:30.644Z,-1.00
2019-02-23T03:49:59.206Z,-1.00
2019-02-23T03:52:27.781Z,-1.00
2019-02-23T03:54:56.325Z,-0.90
2019-02-23T03:57:24.914Z,-0.90
2019-02-23T03:59:53.472Z,-0.80
2019-02-23T04:02:22.124Z,-0.80
2019-02-23T04:04:50.948Z,-0.80
2019-02-23T04:07:19.835Z,-0.70
2019-02-23T04:09:48.404Z,-0.60
2019-02-23T04:12:36.296Z,-0.50
2019-02-23T04:15:04.762Z,-0.40
2019-02-23T04:17:33.724Z,-0.40
2019-02-23T04:20:02.279Z,-0.30
2019-02-23T04:22:32.319Z,-0.40
2019-02-23T04:25:00.925Z,-0.40
2019-02-23T04:27:29.425Z,-0.40
2019-02-23T04:29:58.006Z,-0.40
2019-02-23T04:32:26.558Z,-0.50
2019-02-23T04:34:55.122Z,-0.50
2019-02-23T04:37:23.675Z,-0.50
2019-02-23T04:39:52.607Z,-0.50
2019-02-23T04:42:21.167Z,-0.60
2019-02-23T04:44:49.764Z,-0.50
2019-02-23T04:47:18.311Z,-0.50
2019-02-23T04:50:07.749Z,-0.50
2019-02-23T04:52:36.287Z,-0.50
2019-02-23T04:55:06.594Z,-0.50
2019-02-23T04:57:35.210Z,-0.50
2019-02-23T05:00:04.805Z,-0.50
2019-02-23T05:02:33.522Z,-0.40
2019-02-23T05:05:02.085Z,-0.40
2019-02-23T05:07:30.687Z,-0.50
2019-02-23T05:09:59.230Z,-0.50
2019-02-23T05:12:27.792Z,-0.50
2019-02-23T05:14:56.459Z,-0.50
2019-02-23T05:17:25.013Z,-0.60
2019-02-23T05:19:53.586Z,-0.60
2019-02-23T05:22:22.136Z,-0.70
2019-02-23T05:24:53.401Z,-0.70
2019-02-23T05:27:21.262Z,-0.70
2019-02-23T05:29:50.166Z,-0.70
2019-02-23T05:32:18.715Z,-0.70
2019-02-23T05:34:47.262Z,-0.70
2019-02-23T05:37:15.920Z,-0.70
2019-02-23T05:39:44.466Z,-0.70
2019-02-23T05:42:13.055Z,-0.80
2019-02-23T05:44:41.606Z,-0.90
2019-02-23T05:47:10.202Z,-0.90
2019-02-23T05:49:38.794Z,-0.90
2019-02-23T05:52:07.334Z,-0.90
2019-02-23T05:54:35.909Z,-1.00
2019-02-23T05:57:04.779Z,-0.90
2019-02-23T05:59:33.327Z,-1.00
2019-02-23T06:02:03.887Z,-1.00
2019-02-23T06:04:32.438Z,-1.00
2019-02-23T06:07:00.994Z,-1.00
2019-02-23T06:09:29.580Z,-1.10
2019-02-23T06:11:58.119Z,-1.10
2019-02-23T06:14:26.720Z,-1.00
2019-02-23T06:16:55.295Z,-1.00
2019-02-23T06:19:23.951Z,-1.10
2019-02-23T06:21:54.441Z,-1.10
2019-02-23T06:24:22.787Z,-1.00
2019-02-23T06:26:51.667Z,-1.10
2019-02-23T06:29:20.232Z,-1.10
2019-02-23T06:31:48.782Z,-1.10
2019-02-23T06:34:17.606Z,-1.10
2019-02-23T06:36:46.192Z,-1.00
2019-02-23T06:39:15.083Z,-1.00
2019-02-23T06:41:43.719Z,-0.90
2019-02-23T06:44:12.556Z,-0.90
2019-02-23T06:46:41.108Z,-0.90
2019-02-23T06:49:09.674Z,-0.90
2019-02-23T06:51:38.272Z,-0.80
2019-02-23T06:54:06.846Z,-0.80
2019-02-23T06:56:35.404Z,-0.70
2019-02-23T06:59:03.957Z,-0.60
2019-02-23T07:01:32.838Z,-0.60
2019-02-23T07:04:01.453Z,-0.50
2019-02-23T07:06:30.028Z,-0.40
2019-02-23T07:08:58.646Z,-0.30
2019-02-23T07:11:27.266Z,-0.20
2019-02-23T07:13:55.859Z,-0.10
2019-02-23T07:16:24.390Z,0.10
2019-02-23T07:19:12.298Z,0.20
2019-02-23T07:21:40.062Z,0.30
2019-02-23T07:24:08.601Z,0.40
2019-02-23T07:26:37.503Z,0.60
2019-02-23T07:29:06.047Z,0.60
2019-02-23T07:31:34.690Z,0.80
2019-02-23T07:34:03.568Z,0.90
2019-02-23T07:36:34.083Z,0.90
2019-02-23T07:39:02.715Z,1.00
2019-02-23T07:41:31.259Z,1.20
2019-02-23T07:43:59.838Z,1.30
2019-02-23T07:46:28.448Z,1.50
2019-02-23T07:48:57.030Z,1.70
2019-02-23T07:51:25.580Z,2.00
2019-02-23T07:53:54.233Z,2.30
2019-02-23T07:56:22.783Z,2.40
2019-02-23T07:58:51.363Z,2.80
2019-02-23T08:01:19.957Z,3.10
2019-02-23T08:03:48.499Z,3.50
2019-02-23T08:06:17.043Z,4.30
2019-02-23T08:08:45.611Z,4.70
2019-02-23T08:11:14.158Z,5.50
2019-02-23T08:13:42.734Z,5.80
2019-02-23T08:16:11.289Z,6.20
2019-02-23T08:18:39.842Z,6.40
2019-02-23T08:21:08.421Z,7.00
2019-02-23T08:23:36.967Z,7.00
2019-02-23T08:26:05.517Z,7.10
2019-02-23T08:28:34.087Z,7.50
2019-02-23T08:31:02.913Z,7.90
2019-02-23T08:33:31.447Z,7.90
2019-02-23T08:36:00.023Z,8.10
2019-02-23T08:38:28.557Z,8.20
2019-02-23T08:40:57.034Z,8.10
2019-02-23T08:43:25.623Z,8.60
2019-02-23T08:45:54.236Z,8.90
2019-02-23T08:48:22.708Z,9.30
2019-02-23T08:50:51.561Z,9.50
2019-02-23T08:53:20.098Z,9.80
2019-02-23T08:55:48.566Z,9.60
2019-02-23T08:58:17.062Z,9.70
2019-02-23T09:00:45.623Z,9.80
2019-02-23T09:03:14.167Z,9.60
2019-02-23T09:05:42.766Z,9.10
2019-02-23T09:08:11.547Z,9.00
2019-02-23T09:10:41.142Z,9.30
2019-02-23T09:13:09.931Z,9.70
2019-02-23T09:15:38.525Z,10.00
2019-02-23T09:18:07.067Z,10.70
2019-02-23T09:20:35.643Z,10.80
2019-02-23T09:23:04.193Z,10.70
2019-02-23T09:25:32.815Z,11.20
2019-02-23T09:28:01.406Z,11.90
2019-02-23T09:30:29.954Z,13.20
2019-02-23T09:32:58.492Z,13.80
2019-02-23T09:35:27.064Z,13.80
2019-02-23T09:37:55.614Z,13.10
2019-02-23T09:40:24.442Z,13.30
2019-02-23T09:42:53.085Z,13.20
2019-02-23T09:45:21.562Z,13.40
2019-02-23T09:47:50.188Z,13.40
2019-02-23T09:50:19.079Z,13.30
2019-02-23T09:52:47.631Z,12.80
2019-02-23T09:55:16.309Z,12.90
2019-02-23T09:57:44.954Z,13.50
2019-02-23T10:00:14.610Z,13.70
2019-02-23T10:02:43.195Z,13.40
2019-02-23T10:05:12.217Z,13.70
2019-02-23T10:07:40.775Z,13.30
2019-02-23T10:10:11.655Z,13.50
2019-02-23T10:12:40.297Z,13.80
2019-02-23T10:15:11.515Z,14.30
2019-02-23T10:17:40.185Z,14.40
2019-02-23T10:20:10.964Z,14.00
2019-02-23T10:22:39.943Z,13.50
2019-02-23T10:25:08.803Z,13.60
2019-02-23T10:27:37.452Z,13.20
2019-02-23T10:30:12.646Z,12.90
2019-02-23T10:32:41.154Z,12.80
2019-02-23T10:35:12.298Z,11.90
2019-02-23T10:37:40.918Z,11.50
2019-02-23T10:40:13.618Z,11.10
2019-02-23T10:42:42.206Z,10.50
2019-02-23T10:45:12.415Z,10.60
2019-02-23T10:47:41.989Z,10.40
2019-02-23T10:50:12.525Z,9.90
2019-02-23T10:52:41.495Z,9.70
2019-02-23T10:55:14.790Z,9.30
2019-02-23T10:57:43.394Z,8.80
2019-02-23T11:00:19.509Z,8.80
2019-02-23T11:02:48.521Z,8.90
2019-02-23T11:05:18.097Z,8.40
2019-02-23T11:07:47.446Z,8.50
2019-02-23T11:10:16.851Z,8.50
2019-02-23T11:12:45.575Z,8.40
2019-02-23T11:15:33.471Z,8.50
2019-02-23T11:18:03.012Z,8.40
2019-02-23T11:20:32.149Z,8.00
2019-02-23T11:23:00.710Z,8.00
2019-02-23T11:25:29.402Z,8.30
2019-02-23T11:27:58.411Z,8.30
2019-02-23T11:30:26.976Z,8.50
2019-02-23T11:32:55.522Z,8.50
2019-02-23T11:35:24.133Z,8.30
2019-02-23T11:37:52.946Z,8.40
2019-02-23T11:40:23.585Z,8.30
2019-02-23T11:42:51.998Z,8.20
2019-02-23T11:45:20.571Z,8.40
2019-02-23T11:47:49.122Z,8.30
2019-02-23T11:50:17.842Z,8.20
2019-02-23T11:52:46.396Z,8.30
2019-02-23T11:55:15.111Z,8.50
2019-02-23T11:57:43.651Z,8.60
2019-02-23T12:00:13.861Z,8.70
2019-02-23T12:02:52.165Z,8.50
2019-02-23T12:05:12.731Z,8.60
2019-02-23T12:07:41.329Z,8.50
2019-02-23T12:10:30.760Z,8.50
2019-02-23T12:12:59.294Z,8.80
2019-02-23T12:15:27.763Z,8.90
2019-02-23T12:17:56.334Z,9.00
2019-02-23T12:20:24.947Z,8.90
2019-02-23T12:22:53.486Z,9.00
2019-02-23T12:25:22.336Z,9.10
2019-02-23T12:27:50.943Z,9.10
2019-02-23T12:30:19.507Z,9.00
2019-02-23T12:32:48.053Z,9.10
2019-02-23T12:35:16.596Z,9.20
2019-02-23T12:37:45.170Z,9.30
2019-02-23T12:40:14.137Z,9.50
2019-02-23T12:42:42.711Z,9.50
2019-02-23T12:45:13.149Z,9.50
2019-02-23T12:47:41.865Z,9.50
2019-02-23T12:50:14.302Z,9.60
2019-02-23T12:52:42.922Z,9.50
2019-02-23T12:55:12.137Z,9.50
2019-02-23T12:57:40.613Z,9.40
2019-02-23T13:00:14.646Z,9.20
2019-02-23T13:02:43.305Z,9.20
2019-02-23T13:05:11.910Z,9.20
2019-02-23T13:07:40.459Z,9.20
2019-02-23T13:10:11.567Z,9.30
2019-02-23T13:15:45.603Z,9.40
2019-02-23T13:18:22.814Z,9.40
2019-02-23T13:20:54.452Z,9.50
2019-02-23T13:23:59.933Z,9.50
2019-02-23T13:26:40.519Z,9.40
2019-02-23T13:29:24.385Z,9.40
2019-02-23T13:31:59.230Z,9.30
2019-02-23T13:34:40.191Z,9.30
2019-02-23T13:37:37.647Z,9.20
2019-02-23T13:40:26.210Z,9.30
2019-02-23T13:43:21.658Z,9.40
2019-02-23T13:46:11.063Z,9.50
2019-02-23T13:48:51.846Z,9.50
2019-02-23T13:51:38.968Z,9.50
2019-02-23T13:54:38.423Z,9.60
2019-02-23T13:57:11.042Z,9.50
2019-02-23T14:00:06.535Z,9.60
2019-02-23T14:03:10.945Z,9.50
2019-02-23T14:06:10.283Z,9.50
2019-02-23T14:12:20.835Z,9.60
2019-02-23T14:15:27.075Z,9.40
2019-02-23T14:18:19.455Z,9.50
2019-02-23T14:21:09.050Z,9.60
2019-02-23T14:23:46.278Z,9.60
2019-02-23T14:26:20.850Z,9.60
2019-02-23T14:29:09.584Z,9.60
2019-02-23T14:32:14.924Z,9.60
2019-02-23T14:34:58.603Z,9.60
2019-02-23T14:37:58.221Z,9.70
2019-02-23T14:40:36.013Z,9.80
2019-02-23T14:43:13.261Z,9.80
2019-02-23T14:46:06.161Z,9.90
2019-02-23T14:49:01.580Z,9.90
2019-02-23T14:52:08.705Z,9.80
2019-02-23T14:55:00.864Z,9.70
2019-02-23T14:57:28.740Z,9.60
2019-02-23T15:00:18.573Z,9.50
2019-02-23T15:02:55.476Z,9.50
2019-02-23T15:05:27.362Z,9.50
2019-02-23T15:08:15.385Z,9.40
2019-02-23T15:11:16.633Z,9.40
2019-02-23T15:13:53.911Z,9.40
2019-02-23T15:16:37.395Z,9.40
2019-02-23T15:19:39.163Z,9.40
2019-02-23T15:22:10.959Z,9.30
2019-02-23T15:25:00.351Z,9.30
2019-02-23T15:27:43.751Z,9.30
2019-02-23T15:30:17.902Z,9.30
2019-02-23T15:32:51.309Z,9.20
2019-02-23T15:35:55.874Z,9.20
2019-02-23T15:42:05.835Z,9.10
2019-02-23T15:44:55.269Z,9.10
2019-02-23T15:47:29.634Z,9.00
2019-02-23T15:49:58.174Z,8.90
2019-02-23T15:52:26.697Z,8.90
2019-02-23T15:54:55.393Z,8.80
2019-02-23T15:57:24.422Z,8.80
2019-02-23T15:59:53.034Z,8.80
2019-02-23T16:02:41.007Z,8.80
2019-02-23T16:05:09.135Z,8.80
2019-02-23T16:07:37.073Z,8.70
2019-02-23T16:10:05.778Z,8.70
2019-02-23T16:12:34.672Z,8.70
2019-02-23T16:15:03.286Z,8.70
2019-02-23T16:17:31.873Z,8.60
2019-02-23T16:20:00.565Z,8.50
2019-02-23T16:22:29.503Z,8.60
2019-02-23T16:24:58.051Z,8.60
2019-02-23T16:27:26.642Z,8.50
2019-02-23T16:29:55.196Z,8.50
2019-02-23T16:32:24.039Z,8.50
2019-02-23T16:34:52.587Z,8.50
2019-02-23T16:37:21.187Z,8.40
2019-02-23T16:39:49.740Z,8.40
2019-02-23T16:42:18.581Z,8.40
2019-02-23T16:44:47.472Z,8.40
2019-02-23T16:47:16.030Z,8.30
2019-02-23T16:49:44.579Z,8.30
2019-02-23T16:52:13.559Z,8.20
2019-02-23T16:54:42.106Z,8.10
2019-02-23T16:57:10.710Z,8.10
2019-02-23T16:59:39.284Z,8.00
2019-02-23T17:02:27.511Z,7.90
2019-02-23T17:04:56.400Z,7.90
2019-02-23T17:07:25.291Z,7.80
2019-02-23T17:09:53.831Z,7.70
2019-02-23T17:12:22.356Z,7.60
2019-02-23T17:14:50.968Z,7.60
2019-02-23T17:17:19.582Z,7.60
2019-02-23T17:19:48.175Z,7.50
2019-02-23T17:22:16.727Z,7.40
2019-02-23T17:24:45.307Z,7.30
2019-02-23T17:27:13.879Z,7.20
2019-02-23T17:29:42.427Z,7.00
2019-02-23T17:32:11.014Z,6.90
2019-02-23T17:34:40.011Z,6.80
2019-02-23T17:37:08.557Z,6.70
2019-02-23T17:39:37.114Z,6.60
2019-02-23T17:42:06.465Z,6.50
2019-02-23T17:44:35.004Z,6.40
2019-02-23T17:47:03.542Z,6.40
2019-02-23T17:49:32.186Z,6.40
2019-02-23T17:52:01.031Z,6.20
2019-02-23T17:54:29.653Z,6.20
2019-02-23T17:56:58.211Z,6.00
2019-02-23T17:59:26.791Z,5.90
2019-02-23T18:01:55.407Z,5.70
2019-02-23T18:04:23.967Z,5.60
2019-02-23T18:06:52.570Z,5.50
2019-02-23T18:09:21.195Z,5.40
2019-02-23T18:11:49.814Z,5.40
2019-02-23T18:14:18.368Z,5.20
2019-02-23T18:16:46.894Z,5.20
2019-02-23T18:19:15.474Z,5.10
2019-02-23T18:21:45.326Z,4.90
2019-02-23T18:24:13.861Z,4.80
2019-02-23T18:26:42.442Z,4.80
2019-02-23T18:29:11.017Z,4.70
2019-02-23T18:31:39.614Z,4.60
2019-02-23T18:34:08.546Z,4.60
2019-02-23T18:36:37.337Z,4.70
2019-02-23T18:39:06.229Z,4.80
2019-02-23T18:41:34.867Z,4.90
2019-02-23T18:44:03.475Z,5.00
2019-02-23T18:46:32.096Z,5.00
2019-02-23T18:49:00.672Z,5.00
2019-02-23T18:51:29.291Z,5.00
2019-02-23T18:53:57.783Z,5.00
2019-02-23T18:56:29.554Z,5.00
2019-02-23T18:58:56.586Z,5.00
2019-02-23T19:01:25.159Z,5.00
2019-02-23T19:03:53.795Z,5.00
2019-02-23T19:06:22.494Z,4.90
2019-02-23T19:08:51.086Z,4.80
2019-02-23T19:11:19.739Z,4.80
2019-02-23T19:13:48.325Z,4.70
2019-02-23T19:16:16.867Z,4.70
2019-02-23T19:18:45.492Z,4.60
2019-02-23T19:21:14.074Z,4.50
2019-02-23T19:23:42.561Z,4.40
2019-02-23T19:26:11.449Z,4.40
2019-02-23T19:28:43.264Z,4.40
2019-02-23T19:31:10.365Z,4.40
2019-02-23T19:33:38.913Z,4.20
2019-02-23T19:36:07.504Z,4.20
2019-02-23T19:38:36.089Z,4.20
2019-02-23T19:41:04.671Z,4.20
2019-02-23T19:43:33.571Z,4.10
2019-02-23T19:46:02.119Z,4.10
2019-02-23T19:48:30.735Z,4.00
2019-02-23T19:51:20.166Z,3.90
2019-02-23T19:53:49.569Z,3.80
2019-02-23T19:56:19.010Z,3.60
2019-02-23T19:58:47.553Z,3.50
2019-02-23T20:01:16.143Z,3.40
2019-02-23T20:03:44.967Z,3.30
2019-02-23T20:06:13.530Z,3.20
2019-02-23T20:08:42.078Z,3.10
2019-02-23T20:11:10.920Z,3.00
2019-02-23T20:13:39.814Z,2.90
2019-02-23T20:16:08.419Z,2.80
2019-02-23T20:18:37.100Z,2.70
2019-02-23T20:21:05.572Z,2.60
2019-02-23T20:23:34.407Z,2.50
2019-02-23T20:26:03.259Z,2.50
2019-02-23T20:28:32.040Z,2.40
2019-02-23T20:31:00.756Z,2.40
2019-02-23T20:33:30.697Z,2.30
2019-02-23T20:36:00.889Z,2.30
2019-02-23T20:38:29.614Z,2.30
2019-02-23T20:40:58.420Z,2.20
2019-02-23T20:43:26.963Z,2.30
2019-02-23T20:45:55.549Z,2.30
2019-02-23T20:48:24.377Z,2.30
2019-02-23T20:50:52.930Z,2.40
2019-02-23T20:53:21.702Z,2.40
2019-02-23T20:55:50.262Z,2.40
2019-02-23T20:58:18.851Z,2.40
2019-02-23T21:00:47.692Z,2.50
2019-02-23T21:03:16.255Z,2.40
2019-02-23T21:05:44.982Z,2.40
2019-02-23T21:08:13.576Z,2.40
2019-02-23T21:10:42.135Z,2.40
2019-02-23T21:13:12.188Z,2.40
2019-02-23T21:15:40.806Z,2.30
2019-02-23T21:18:09.300Z,2.20
2019-02-23T21:20:37.919Z,2.10
2019-02-23T21:23:06.470Z,2.00
2019-02-23T21:25:35.359Z,2.00
2019-02-23T21:28:04.240Z,1.90
2019-02-23T21:30:32.760Z,1.80
2019-02-23T21:33:01.458Z,1.80
2019-02-23T21:35:31.725Z,1.80
2019-02-23T21:38:00.846Z,1.80
2019-02-23T21:40:29.700Z,1.70
2019-02-23T21:43:17.774Z,1.70
2019-02-23T21:45:48.069Z,1.70
2019-02-23T21:48:16.803Z,1.60
2019-02-23T21:50:46.958Z,1.50
2019-02-23T21:53:15.565Z,1.50
2019-02-23T21:55:44.523Z,1.40
2019-02-23T21:58:13.259Z,1.30
2019-02-23T22:00:41.820Z,1.30
2019-02-23T22:03:10.560Z,1.20
2019-02-23T22:05:39.891Z,1.10
2019-02-23T22:08:08.708Z,1.10
2019-02-23T22:10:37.387Z,1.10
2019-02-23T22:13:05.987Z,1.00
2019-02-23T22:15:34.980Z,1.00
2019-02-23T22:18:03.856Z,0.90
2019-02-23T22:20:32.691Z,0.90
2019-02-23T22:23:01.566Z,0.90
2019-02-23T22:25:49.391Z,0.90
2019-02-23T22:28:17.255Z,0.90
2019-02-23T22:30:45.845Z,0.90
2019-02-23T22:33:14.487Z,0.80
2019-02-23T22:35:42.999Z,0.70
2019-02-23T22:38:30.925Z,0.70
2019-02-23T22:40:58.789Z,0.70
2019-02-23T22:43:27.657Z,0.60
2019-02-23T22:45:56.223Z,0.60
2019-02-23T22:48:24.770Z,0.60
2019-02-23T22:50:53.655Z,0.50
2019-02-23T22:53:22.216Z,0.50
2019-02-23T22:55:50.763Z,0.50
2019-02-23T22:58:19.261Z,0.40
2019-02-23T23:03:42.989Z,0.40
2019-02-23T23:06:11.526Z,0.30
2019-02-23T23:08:40.075Z,0.30
2019-02-23T23:11:08.647Z,0.20
2019-02-23T23:13:37.207Z,0.20
2019-02-23T23:16:05.916Z,0.10
2019-02-23T23:18:34.488Z,0.10
2019-02-23T23:21:04.519Z,0.10
2019-02-23T23:23:33.095Z,0.00
2019-02-23T23:26:01.938Z,0.00
2019-02-23T23:28:30.579Z,0.00
2019-02-23T23:30:59.117Z,-0.10
2019-02-23T23:33:27.662Z,-0.10
2019-02-23T23:35:56.178Z,-0.10
2019-02-23T23:38:24.730Z,-0.20
2019-02-23T23:41:12.635Z,-0.20
2019-02-23T23:43:40.673Z,-0.30
2019-02-23T23:46:08.362Z,-0.30
2019-02-23T23:48:37.204Z,-0.40
2019-02-23T23:51:05.750Z,-0.40
2019-02-23T23:53:34.695Z,-0.40
2019-02-23T23:56:03.291Z,-0.50
2019-02-23T23:58:31.858Z,-0.50
